sensor_id;sensor_type;location;lat;lon;timestamp;pressure;altitude;pressure_sealevel;temperature;humidity
55470;BME280;41334;47.872;16.384;2022-08-25T00:00:24;99199.66;;;18.16;67.14
55470;BME280;41334;47.872;16.384;2022-08-25T00:03:27;99204.00;;;18.17;67.71
55470;BME280;41334;47.872;16.384;2022-08-25T00:06:38;99202.97;;;18.18;67.42
55470;BME280;41334;47.872;16.384;2022-08-25T00:09:40;99204.59;;;18.19;67.72
55470;BME280;41334;47.872;16.384;2022-08-25T00:12:42;99202.16;;;18.18;67.40
55470;BME280;41334;47.872;16.384;2022-08-25T00:15:43;99205.81;;;18.12;68.35
55470;BME280;41334;47.872;16.384;2022-08-25T00:18:50;99198.28;;;18.14;67.21
55470;BME280;41334;47.872;16.384;2022-08-25T00:21:53;99202.28;;;18.11;69.05
55470;BME280;41334;47.872;16.384;2022-08-25T00:24:55;99205.94;;;18.05;68.89
55470;BME280;41334;47.872;16.384;2022-08-25T00:27:56;99207.19;;;17.85;71.80
55470;BME280;41334;47.872;16.384;2022-08-25T00:31:00;99231.34;;;17.35;74.83
55470;BME280;41334;47.872;16.384;2022-08-25T00:34:03;99233.56;;;16.91;77.35
55470;BME280;41334;47.872;16.384;2022-08-25T00:37:07;99242.59;;;16.73;79.91
55470;BME280;41334;47.872;16.384;2022-08-25T00:40:10;99241.53;;;16.74;81.52
55470;BME280;41334;47.872;16.384;2022-08-25T00:43:12;99248.94;;;16.67;81.91
55470;BME280;41334;47.872;16.384;2022-08-25T00:46:18;99256.59;;;16.70;82.67
55470;BME280;41334;47.872;16.384;2022-08-25T00:49:31;99252.81;;;16.71;83.03
55470;BME280;41334;47.872;16.384;2022-08-25T00:52:41;99236.50;;;16.78;83.78
55470;BME280;41334;47.872;16.384;2022-08-25T00:55:44;99242.03;;;16.83;83.64
55470;BME280;41334;47.872;16.384;2022-08-25T00:58:46;99249.66;;;16.86;83.00
55470;BME280;41334;47.872;16.384;2022-08-25T01:01:49;99250.03;;;16.90;82.33
55470;BME280;41334;47.872;16.384;2022-08-25T01:04:51;99233.69;;;16.96;80.62
55470;BME280;41334;47.872;16.384;2022-08-25T01:07:55;99239.78;;;17.03;80.82
55470;BME280;41334;47.872;16.384;2022-08-25T01:11:02;99237.69;;;16.94;81.09
55470;BME280;41334;47.872;16.384;2022-08-25T01:14:05;99234.50;;;16.97;80.36
55470;BME280;41334;47.872;16.384;2022-08-25T01:17:07;99222.03;;;16.96;79.49
55470;BME280;41334;47.872;16.384;2022-08-25T01:20:10;99225.31;;;16.98;80.20
55470;BME280;41334;47.872;16.384;2022-08-25T01:23:13;99221.91;;;16.91;80.10
55470;BME280;41334;47.872;16.384;2022-08-25T01:26:22;99219.44;;;17.01;80.29
55470;BME280;41334;47.872;16.384;2022-08-25T01:29:31;99214.84;;;17.01;80.04
55470;BME280;41334;47.872;16.384;2022-08-25T01:32:34;99215.66;;;17.02;80.05
55470;BME280;41334;47.872;16.384;2022-08-25T01:35:37;99212.38;;;17.00;79.85
55470;BME280;41334;47.872;16.384;2022-08-25T01:38:39;99206.47;;;17.03;79.32
55470;BME280;41334;47.872;16.384;2022-08-25T01:45:04;99208.72;;;17.06;79.06
55470;BME280;41334;47.872;16.384;2022-08-25T01:48:07;99219.31;;;17.07;79.46
55470;BME280;41334;47.872;16.384;2022-08-25T01:51:10;99213.19;;;17.12;79.19
55470;BME280;41334;47.872;16.384;2022-08-25T01:54:12;99202.59;;;17.11;78.69
55470;BME280;41334;47.872;16.384;2022-08-25T01:57:14;99203.44;;;17.11;79.25
55470;BME280;41334;47.872;16.384;2022-08-25T02:00:17;99210.22;;;17.14;78.88
55470;BME280;41334;47.872;16.384;2022-08-25T02:03:20;99206.13;;;17.11;78.85
55470;BME280;41334;47.872;16.384;2022-08-25T02:06:30;99205.56;;;17.09;78.69
55470;BME280;41334;47.872;16.384;2022-08-25T02:09:34;99210.13;;;17.08;78.36
55470;BME280;41334;47.872;16.384;2022-08-25T02:12:36;99210.97;;;17.09;78.65
55470;BME280;41334;47.872;16.384;2022-08-25T02:15:44;99205.78;;;17.07;78.97
55470;BME280;41334;47.872;16.384;2022-08-25T02:18:47;99203.88;;;17.08;78.64
55470;BME280;41334;47.872;16.384;2022-08-25T02:21:49;99204.50;;;17.10;77.83
55470;BME280;41334;47.872;16.384;2022-08-25T02:24:51;99198.00;;;17.11;77.95
55470;BME280;41334;47.872;16.384;2022-08-25T02:27:53;99201.19;;;17.08;77.92
55470;BME280;41334;47.872;16.384;2022-08-25T02:30:55;99203.06;;;17.07;78.13
55470;BME280;41334;47.872;16.384;2022-08-25T02:34:02;99194.72;;;17.09;78.09
55470;BME280;41334;47.872;16.384;2022-08-25T02:37:05;99195.53;;;17.10;78.84
55470;BME280;41334;47.872;16.384;2022-08-25T02:40:08;99206.38;;;17.10;79.23
55470;BME280;41334;47.872;16.384;2022-08-25T02:43:10;99204.50;;;17.10;78.69
55470;BME280;41334;47.872;16.384;2022-08-25T02:46:12;99204.50;;;17.10;78.61
55470;BME280;41334;47.872;16.384;2022-08-25T02:49:14;99200.97;;;17.10;78.04
55470;BME280;41334;47.872;16.384;2022-08-25T02:52:16;99204.25;;;17.12;78.30
55470;BME280;41334;47.872;16.384;2022-08-25T02:55:18;99195.75;;;17.08;77.67
55470;BME280;41334;47.872;16.384;2022-08-25T02:58:20;99188.94;;;17.05;77.58
55470;BME280;41334;47.872;16.384;2022-08-25T03:01:22;99190.34;;;17.08;77.50
55470;BME280;41334;47.872;16.384;2022-08-25T03:04:29;99196.00;;;17.06;77.89
55470;BME280;41334;47.872;16.384;2022-08-25T03:07:34;99186.00;;;17.07;77.27
55470;BME280;41334;47.872;16.384;2022-08-25T03:10:36;99186.25;;;17.05;77.42
55470;BME280;41334;47.872;16.384;2022-08-25T03:13:38;99182.94;;;17.03;78.64
55470;BME280;41334;47.872;16.384;2022-08-25T03:16:40;99181.28;;;17.02;78.89
55470;BME280;41334;47.872;16.384;2022-08-25T03:19:46;99191.66;;;17.05;78.06
55470;BME280;41334;47.872;16.384;2022-08-25T03:22:48;99186.69;;;17.02;78.04
55470;BME280;41334;47.872;16.384;2022-08-25T03:25:53;99186.94;;;17.01;77.43
55470;BME280;41334;47.872;16.384;2022-08-25T03:29:14;99184.13;;;16.96;77.94
55470;BME280;41334;47.872;16.384;2022-08-25T03:32:16;99180.84;;;16.94;78.40
55470;BME280;41334;47.872;16.384;2022-08-25T03:35:18;99182.69;;;16.93;78.34
55470;BME280;41334;47.872;16.384;2022-08-25T03:38:21;99190.25;;;16.91;78.84
55470;BME280;41334;47.872;16.384;2022-08-25T03:41:27;99184.59;;;16.93;78.19
55470;BME280;41334;47.872;16.384;2022-08-25T03:44:30;99189.53;;;16.96;78.77
55470;BME280;41334;47.872;16.384;2022-08-25T03:47:31;99186.00;;;16.95;78.65
55470;BME280;41334;47.872;16.384;2022-08-25T03:50:33;99185.19;;;16.95;77.72
55470;BME280;41334;47.872;16.384;2022-08-25T03:53:36;99189.19;;;16.92;77.84
55470;BME280;41334;47.872;16.384;2022-08-25T03:56:38;99188.34;;;16.92;78.23
55470;BME280;41334;47.872;16.384;2022-08-25T03:59:41;99190.25;;;16.91;78.37
55470;BME280;41334;47.872;16.384;2022-08-25T04:02:43;99194.25;;;16.89;78.62
55470;BME280;41334;47.872;16.384;2022-08-25T04:05:46;99196.47;;;16.92;78.32
55470;BME280;41334;47.872;16.384;2022-08-25T04:08:48;99189.41;;;16.91;78.42
55470;BME280;41334;47.872;16.384;2022-08-25T04:11:50;99201.44;;;16.95;78.49
55470;BME280;41334;47.872;16.384;2022-08-25T04:14:53;99198.94;;;16.93;78.50
55470;BME280;41334;47.872;16.384;2022-08-25T04:17:56;99199.53;;;16.95;78.52
55470;BME280;41334;47.872;16.384;2022-08-25T04:21:04;99185.53;;;16.98;77.81
55470;BME280;41334;47.872;16.384;2022-08-25T04:24:07;99189.41;;;17.02;78.34
55470;BME280;41334;47.872;16.384;2022-08-25T04:27:09;99197.91;;;17.06;78.44
55470;BME280;41334;47.872;16.384;2022-08-25T04:30:12;99192.59;;;17.11;78.63
55470;BME280;41334;47.872;16.384;2022-08-25T04:33:14;99197.19;;;17.11;78.73
55470;BME280;41334;47.872;16.384;2022-08-25T04:36:17;99191.53;;;17.12;77.68
55470;BME280;41334;47.872;16.384;2022-08-25T04:39:20;99201.66;;;17.17;77.94
55470;BME280;41334;47.872;16.384;2022-08-25T04:42:22;99197.88;;;17.18;77.55
55470;BME280;41334;47.872;16.384;2022-08-25T04:45:23;99194.00;;;17.25;77.61
55470;BME280;41334;47.872;16.384;2022-08-25T04:48:25;99191.88;;;17.27;77.68
55470;BME280;41334;47.872;16.384;2022-08-25T04:51:33;99201.78;;;17.33;77.33
55470;BME280;41334;47.872;16.384;2022-08-25T04:54:36;99200.81;;;17.40;77.87
55470;BME280;41334;47.872;16.384;2022-08-25T04:57:38;99199.06;;;17.45;77.81
55470;BME280;41334;47.872;16.384;2022-08-25T05:00:40;99198.94;;;17.52;77.69
55470;BME280;41334;47.872;16.384;2022-08-25T05:03:44;99193.00;;;17.55;77.29
55470;BME280;41334;47.872;16.384;2022-08-25T05:06:47;99187.69;;;17.60;76.86
55470;BME280;41334;47.872;16.384;2022-08-25T05:09:49;99195.94;;;17.65;76.73
55470;BME280;41334;47.872;16.384;2022-08-25T05:12:51;99193.19;;;17.77;76.61
55470;BME280;41334;47.872;16.384;2022-08-25T05:15:58;99184.66;;;17.85;75.57
55470;BME280;41334;47.872;16.384;2022-08-25T05:19:00;99184.66;;;17.85;75.24
55470;BME280;41334;47.872;16.384;2022-08-25T05:22:02;99189.38;;;17.90;75.34
55470;BME280;41334;47.872;16.384;2022-08-25T05:25:05;99183.59;;;17.86;75.38
55470;BME280;41334;47.872;16.384;2022-08-25T05:28:07;99190.19;;;17.90;75.74
55470;BME280;41334;47.872;16.384;2022-08-25T05:31:11;99187.81;;;17.94;75.52
55470;BME280;41334;47.872;16.384;2022-08-25T05:34:13;99192.03;;;18.01;74.80
55470;BME280;41334;47.872;16.384;2022-08-25T05:37:15;99181.63;;;18.10;74.39
55470;BME280;41334;47.872;16.384;2022-08-25T05:40:17;99183.72;;;18.20;74.47
55470;BME280;41334;47.872;16.384;2022-08-25T05:43:19;99182.28;;;18.29;73.80
55470;BME280;41334;47.872;16.384;2022-08-25T05:46:22;99182.00;;;18.30;73.66
55470;BME280;41334;47.872;16.384;2022-08-25T05:49:24;99185.16;;;18.39;72.59
55470;BME280;41334;47.872;16.384;2022-08-25T05:52:26;99186.38;;;18.48;73.42
55470;BME280;41334;47.872;16.384;2022-08-25T05:55:28;99179.72;;;18.56;72.89
55470;BME280;41334;47.872;16.384;2022-08-25T05:58:30;99192.06;;;18.63;73.53
55470;BME280;41334;47.872;16.384;2022-08-25T06:01:32;99173.16;;;18.85;72.91
55470;BME280;41334;47.872;16.384;2022-08-25T06:04:52;99172.03;;;19.20;71.90
55470;BME280;41334;47.872;16.384;2022-08-25T06:07:54;99172.28;;;19.40;71.01
55470;BME280;41334;47.872;16.384;2022-08-25T06:10:56;99165.41;;;19.55;71.01
55470;BME280;41334;47.872;16.384;2022-08-25T06:13:58;99158.88;;;19.73;70.64
55470;BME280;41334;47.872;16.384;2022-08-25T06:17:00;99160.06;;;20.09;69.18
55470;BME280;41334;47.872;16.384;2022-08-25T06:20:02;99153.81;;;20.13;67.85
55470;BME280;41334;47.872;16.384;2022-08-25T06:23:07;99159.13;;;20.25;68.27
55470;BME280;41334;47.872;16.384;2022-08-25T06:26:11;99150.94;;;20.52;66.73
55470;BME280;41334;47.872;16.384;2022-08-25T06:29:21;99153.00;;;20.72;65.53
55470;BME280;41334;47.872;16.384;2022-08-25T06:32:23;99159.50;;;20.66;66.48
55470;BME280;41334;47.872;16.384;2022-08-25T06:35:25;99155.53;;;20.84;66.12
55470;BME280;41334;47.872;16.384;2022-08-25T06:38:28;99159.28;;;21.15;64.98
55470;BME280;41334;47.872;16.384;2022-08-25T06:41:30;99151.81;;;21.53;63.27
55470;BME280;41334;47.872;16.384;2022-08-25T06:44:37;99143.69;;;21.73;61.92
55470;BME280;41334;47.872;16.384;2022-08-25T06:47:39;99147.31;;;21.89;60.99
55470;BME280;41334;47.872;16.384;2022-08-25T06:50:42;99150.72;;;21.49;61.50
55470;BME280;41334;47.872;16.384;2022-08-25T06:53:46;99159.34;;;21.25;62.50
55470;BME280;41334;47.872;16.384;2022-08-25T06:56:49;99162.03;;;21.20;63.07
55470;BME280;41334;47.872;16.384;2022-08-25T06:59:52;99163.44;;;20.90;63.92
55470;BME280;41334;47.872;16.384;2022-08-25T07:02:54;99160.72;;;20.21;65.86
55470;BME280;41334;47.872;16.384;2022-08-25T07:05:56;99182.94;;;20.13;67.13
55470;BME280;41334;47.872;16.384;2022-08-25T07:08:58;99185.50;;;19.98;67.52
55470;BME280;41334;47.872;16.384;2022-08-25T07:12:00;99186.25;;;19.93;67.61
55470;BME280;41334;47.872;16.384;2022-08-25T07:15:04;99187.59;;;20.17;67.55
55470;BME280;41334;47.872;16.384;2022-08-25T07:18:21;99174.50;;;20.36;66.40
55470;BME280;41334;47.872;16.384;2022-08-25T07:21:24;99179.03;;;20.58;66.13
55470;BME280;41334;47.872;16.384;2022-08-25T07:24:33;99193.06;;;20.45;66.05
55470;BME280;41334;47.872;16.384;2022-08-25T07:27:35;99193.41;;;20.53;65.90
55470;BME280;41334;47.872;16.384;2022-08-25T07:30:36;99179.50;;;20.82;64.65
55470;BME280;41334;47.872;16.384;2022-08-25T07:33:38;99170.72;;;21.17;62.95
55470;BME280;41334;47.872;16.384;2022-08-25T07:37:01;99176.63;;;21.51;62.29
55470;BME280;41334;47.872;16.384;2022-08-25T07:40:06;99171.91;;;21.36;61.40
55470;BME280;41334;47.872;16.384;2022-08-25T07:43:09;99160.06;;;21.73;60.98
55470;BME280;41334;47.872;16.384;2022-08-25T07:46:10;99163.47;;;22.11;60.36
55470;BME280;41334;47.872;16.384;2022-08-25T07:49:13;99157.50;;;22.70;58.52
55470;BME280;41334;47.872;16.384;2022-08-25T07:52:17;99161.69;;;23.52;56.71
55470;BME280;41334;47.872;16.384;2022-08-25T07:55:20;99164.63;;;23.76;55.22
55470;BME280;41334;47.872;16.384;2022-08-25T07:58:22;99163.75;;;23.16;56.14
55470;BME280;41334;47.872;16.384;2022-08-25T08:01:24;99157.94;;;23.28;56.72
55470;BME280;41334;47.872;16.384;2022-08-25T08:04:26;99163.00;;;23.60;55.94
55470;BME280;41334;47.872;16.384;2022-08-25T08:07:28;99165.72;;;23.75;54.87
55470;BME280;41334;47.872;16.384;2022-08-25T08:10:44;99163.22;;;23.84;54.95
55470;BME280;41334;47.872;16.384;2022-08-25T08:14:06;99161.97;;;23.56;54.09
55470;BME280;41334;47.872;16.384;2022-08-25T08:17:09;99161.84;;;23.87;52.58
55470;BME280;41334;47.872;16.384;2022-08-25T08:20:12;99158.16;;;24.01;52.37
55470;BME280;41334;47.872;16.384;2022-08-25T08:23:15;99160.41;;;23.94;53.13
55470;BME280;41334;47.872;16.384;2022-08-25T08:26:17;99154.94;;;23.94;52.36
55470;BME280;41334;47.872;16.384;2022-08-25T08:29:21;99153.69;;;24.16;51.61
55470;BME280;41334;47.872;16.384;2022-08-25T08:32:23;99154.69;;;24.30;51.61
55470;BME280;41334;47.872;16.384;2022-08-25T08:35:45;99137.34;;;24.45;50.99
55470;BME280;41334;47.872;16.384;2022-08-25T08:38:47;99138.00;;;24.66;50.82
55470;BME280;41334;47.872;16.384;2022-08-25T08:45:33;99142.25;;;24.77;51.11
55470;BME280;41334;47.872;16.384;2022-08-25T08:49:01;99146.59;;;25.36;48.59
55470;BME280;41334;47.872;16.384;2022-08-25T08:52:06;99149.03;;;25.14;48.21
55470;BME280;41334;47.872;16.384;2022-08-25T08:58:46;99136.00;;;26.10;46.57
55470;BME280;41334;47.872;16.384;2022-08-25T09:01:52;99137.13;;;26.09;47.18
55470;BME280;41334;47.872;16.384;2022-08-25T09:05:04;99144.44;;;25.76;46.92
55470;BME280;41334;47.872;16.384;2022-08-25T09:08:10;99130.66;;;25.81;46.42
55470;BME280;41334;47.872;16.384;2022-08-25T09:15:17;99129.81;;;27.02;44.26
55470;BME280;41334;47.872;16.384;2022-08-25T09:29:24;99111.28;;;26.61;44.33
55470;BME280;41334;47.872;16.384;2022-08-25T09:32:34;99111.28;;;26.61;44.33
55470;BME280;41334;47.872;16.384;2022-08-25T09:35:40;99109.38;;;27.72;42.56
55470;BME280;41334;47.872;16.384;2022-08-25T09:38:43;99099.34;;;27.40;42.45
55470;BME280;41334;47.872;16.384;2022-08-25T09:41:58;99093.63;;;26.16;44.60
55470;BME280;41334;47.872;16.384;2022-08-25T09:45:00;99090.59;;;25.80;45.97
55470;BME280;41334;47.872;16.384;2022-08-25T09:51:31;99095.06;;;26.14;46.05
55470;BME280;41334;47.872;16.384;2022-08-25T09:54:43;99094.88;;;26.24;46.29
55470;BME280;41334;47.872;16.384;2022-08-25T09:57:50;99085.44;;;26.11;46.46
55470;BME280;41334;47.872;16.384;2022-08-25T10:01:12;99085.00;;;26.55;45.04
55470;BME280;41334;47.872;16.384;2022-08-25T10:04:27;99081.63;;;27.32;43.98
55470;BME280;41334;47.872;16.384;2022-08-25T10:07:36;99078.34;;;27.03;41.76
55470;BME280;41334;47.872;16.384;2022-08-25T10:10:44;99084.03;;;27.06;42.63
55470;BME280;41334;47.872;16.384;2022-08-25T10:13:49;99074.91;;;26.97;42.23
55470;BME280;41334;47.872;16.384;2022-08-25T10:17:27;99069.78;;;27.46;41.90
55470;BME280;41334;47.872;16.384;2022-08-25T10:20:30;99067.06;;;27.68;41.16
55470;BME280;41334;47.872;16.384;2022-08-25T10:23:42;99068.16;;;26.76;41.19
55470;BME280;41334;47.872;16.384;2022-08-25T10:27:01;99061.56;;;26.44;42.85
55470;BME280;41334;47.872;16.384;2022-08-25T10:30:21;99061.56;;;26.44;42.85
55470;BME280;41334;47.872;16.384;2022-08-25T10:33:35;99059.06;;;27.17;42.25
55470;BME280;41334;47.872;16.384;2022-08-25T10:36:43;99062.25;;;27.24;42.25
55470;BME280;41334;47.872;16.384;2022-08-25T10:49:47;99041.44;;;26.63;42.92
55470;BME280;41334;47.872;16.384;2022-08-25T10:53:12;99044.53;;;27.02;42.29
55470;BME280;41334;47.872;16.384;2022-08-25T10:56:29;99045.31;;;26.61;42.67
55470;BME280;41334;47.872;16.384;2022-08-25T10:59:50;99038.63;;;26.95;42.26
55470;BME280;41334;47.872;16.384;2022-08-25T11:10:13;99029.09;;;27.79;40.21
55470;BME280;41334;47.872;16.384;2022-08-25T11:17:37;99019.78;;;26.15;41.67
55470;BME280;41334;47.872;16.384;2022-08-25T11:21:34;99023.97;;;26.86;41.98
55470;BME280;41334;47.872;16.384;2022-08-25T11:27:37;99014.66;;;26.68;42.97
55470;BME280;41334;47.872;16.384;2022-08-25T11:30:44;99008.31;;;27.73;40.92
55470;BME280;41334;47.872;16.384;2022-08-25T11:33:48;99011.38;;;27.71;39.59
55470;BME280;41334;47.872;16.384;2022-08-25T11:36:55;99004.69;;;28.31;38.10
55470;BME280;41334;47.872;16.384;2022-08-25T11:50:36;98995.94;;;26.43;42.87
55470;BME280;41334;47.872;16.384;2022-08-25T11:54:55;99001.34;;;26.61;41.45
55470;BME280;41334;47.872;16.384;2022-08-25T11:57:44;99006.22;;;27.20;41.33
55470;BME280;41334;47.872;16.384;2022-08-25T12:00:51;99000.31;;;27.12;41.90
55470;BME280;41334;47.872;16.384;2022-08-25T12:07:18;98996.44;;;26.58;42.61
55470;BME280;41334;47.872;16.384;2022-08-25T12:10:23;98988.34;;;27.45;40.59
55470;BME280;41334;47.872;16.384;2022-08-25T12:19:57;98988.19;;;27.63;38.09
55470;BME280;41334;47.872;16.384;2022-08-25T12:23:01;98995.03;;;27.02;40.07
55470;BME280;41334;47.872;16.384;2022-08-25T12:26:11;98983.09;;;27.57;39.65
55470;BME280;41334;47.872;16.384;2022-08-25T12:29:37;98979.75;;;27.82;39.01
55470;BME280;41334;47.872;16.384;2022-08-25T12:35:57;98972.84;;;28.16;38.88
55470;BME280;41334;47.872;16.384;2022-08-25T12:39:16;98971.19;;;28.15;39.30
55470;BME280;41334;47.872;16.384;2022-08-25T12:42:23;98978.13;;;26.95;39.87
55470;BME280;41334;47.872;16.384;2022-08-25T12:45:40;98972.72;;;26.35;41.57
55470;BME280;41334;47.872;16.384;2022-08-25T12:52:15;98961.91;;;25.92;41.87
55470;BME280;41334;47.872;16.384;2022-08-25T12:55:19;98965.28;;;26.49;40.72
55470;BME280;41334;47.872;16.384;2022-08-25T12:58:31;98956.44;;;26.52;39.64
55470;BME280;41334;47.872;16.384;2022-08-25T13:08:25;98950.56;;;26.73;39.13
55470;BME280;41334;47.872;16.384;2022-08-25T13:11:43;98949.69;;;27.13;37.81
55470;BME280;41334;47.872;16.384;2022-08-25T13:14:54;98949.00;;;26.94;37.10
55470;BME280;41334;47.872;16.384;2022-08-25T13:18:16;98949.69;;;27.50;37.63
55470;BME280;41334;47.872;16.384;2022-08-25T13:21:23;98942.06;;;27.69;36.38
55470;BME280;41334;47.872;16.384;2022-08-25T13:24:34;98931.72;;;27.52;37.05
55470;BME280;41334;47.872;16.384;2022-08-25T13:27:41;98936.50;;;27.83;36.58
55470;BME280;41334;47.872;16.384;2022-08-25T13:31:02;98934.19;;;27.76;37.16
55470;BME280;41334;47.872;16.384;2022-08-25T13:34:06;98923.69;;;28.40;34.87
55470;BME280;41334;47.872;16.384;2022-08-25T13:37:17;98928.00;;;28.64;34.39
55470;BME280;41334;47.872;16.384;2022-08-25T13:40:31;98925.69;;;28.18;35.85
55470;BME280;41334;47.872;16.384;2022-08-25T13:43:38;98922.72;;;28.05;35.88
55470;BME280;41334;47.872;16.384;2022-08-25T13:46:42;98919.97;;;27.83;34.92
55470;BME280;41334;47.872;16.384;2022-08-25T13:49:46;98916.78;;;28.60;34.38
55470;BME280;41334;47.872;16.384;2022-08-25T13:56:05;98920.38;;;28.70;35.24
55470;BME280;41334;47.872;16.384;2022-08-25T14:05:44;98905.94;;;27.84;33.85
55470;BME280;41334;47.872;16.384;2022-08-25T14:12:00;98893.59;;;27.59;36.50
55470;BME280;41334;47.872;16.384;2022-08-25T14:18:28;98886.31;;;27.86;36.46
55470;BME280;41334;47.872;16.384;2022-08-25T14:21:33;98886.13;;;28.13;35.63
55470;BME280;41334;47.872;16.384;2022-08-25T14:24:41;98883.72;;;28.21;35.27
55470;BME280;41334;47.872;16.384;2022-08-25T14:27:44;98894.09;;;28.24;35.64
55470;BME280;41334;47.872;16.384;2022-08-25T14:31:13;98892.97;;;28.25;34.61
55470;BME280;41334;47.872;16.384;2022-08-25T14:34:31;98899.75;;;28.19;34.76
55470;BME280;41334;47.872;16.384;2022-08-25T14:37:33;98893.47;;;28.27;35.74
55470;BME280;41334;47.872;16.384;2022-08-25T14:40:35;98894.56;;;28.17;34.73
55470;BME280;41334;47.872;16.384;2022-08-25T14:43:38;98888.41;;;28.20;34.63
55470;BME280;41334;47.872;16.384;2022-08-25T14:46:44;98896.41;;;27.99;34.37
55470;BME280;41334;47.872;16.384;2022-08-25T14:49:47;98885.22;;;27.64;36.08
55470;BME280;41334;47.872;16.384;2022-08-25T14:52:50;98887.53;;;27.49;36.27
55470;BME280;41334;47.872;16.384;2022-08-25T14:55:52;98884.88;;;27.66;35.74
55470;BME280;41334;47.872;16.384;2022-08-25T14:59:00;98880.16;;;27.89;35.35
55470;BME280;41334;47.872;16.384;2022-08-25T15:02:02;98879.41;;;27.97;34.40
55470;BME280;41334;47.872;16.384;2022-08-25T15:05:19;98878.41;;;28.33;34.88
55470;BME280;41334;47.872;16.384;2022-08-25T15:08:23;98871.91;;;27.89;34.99
55470;BME280;41334;47.872;16.384;2022-08-25T15:11:53;98873.41;;;27.95;34.78
55470;BME280;41334;47.872;16.384;2022-08-25T15:14:55;98875.94;;;27.83;35.33
55470;BME280;41334;47.872;16.384;2022-08-25T15:17:58;98875.31;;;27.86;36.34
55470;BME280;41334;47.872;16.384;2022-08-25T15:21:01;98871.34;;;28.01;35.57
55470;BME280;41334;47.872;16.384;2022-08-25T15:24:04;98869.66;;;27.91;35.33
55470;BME280;41334;47.872;16.384;2022-08-25T15:27:07;98865.75;;;27.61;35.39
55470;BME280;41334;47.872;16.384;2022-08-25T15:30:11;98865.56;;;27.57;36.09
55470;BME280;41334;47.872;16.384;2022-08-25T15:33:13;98861.81;;;27.53;35.29
55470;BME280;41334;47.872;16.384;2022-08-25T15:36:23;98862.31;;;27.55;35.38
55470;BME280;41334;47.872;16.384;2022-08-25T15:39:26;98866.31;;;27.49;36.38
55470;BME280;41334;47.872;16.384;2022-08-25T15:42:28;98856.94;;;27.50;36.02
55470;BME280;41334;47.872;16.384;2022-08-25T15:45:30;98857.00;;;27.36;36.42
55470;BME280;41334;47.872;16.384;2022-08-25T15:48:33;98857.00;;;27.36;35.90
55470;BME280;41334;47.872;16.384;2022-08-25T15:51:36;98853.78;;;27.21;37.54
55470;BME280;41334;47.872;16.384;2022-08-25T15:54:38;98856.75;;;26.88;36.77
55470;BME280;41334;47.872;16.384;2022-08-25T15:57:40;98849.56;;;27.01;36.42
55470;BME280;41334;47.872;16.384;2022-08-25T16:00:43;98851.88;;;26.85;36.66
55470;BME280;41334;47.872;16.384;2022-08-25T16:03:57;98845.50;;;27.12;37.09
55470;BME280;41334;47.872;16.384;2022-08-25T16:06:59;98845.50;;;27.12;37.09
55470;BME280;41334;47.872;16.384;2022-08-25T16:10:02;98847.59;;;26.93;37.85
55470;BME280;41334;47.872;16.384;2022-08-25T16:13:05;98838.22;;;26.94;37.52
55470;BME280;41334;47.872;16.384;2022-08-25T16:16:09;98837.59;;;26.97;36.84
55470;BME280;41334;47.872;16.384;2022-08-25T16:19:11;98836.91;;;26.91;38.01
55470;BME280;41334;47.872;16.384;2022-08-25T16:22:16;98846.50;;;26.80;36.62
55470;BME280;41334;47.872;16.384;2022-08-25T16:25:18;98833.56;;;26.80;36.38
55470;BME280;41334;47.872;16.384;2022-08-25T16:28:21;98837.53;;;26.74;35.99
55470;BME280;41334;47.872;16.384;2022-08-25T16:31:25;98839.31;;;26.56;36.85
55470;BME280;41334;47.872;16.384;2022-08-25T16:34:27;98843.69;;;26.44;37.68
55470;BME280;41334;47.872;16.384;2022-08-25T16:37:34;98837.69;;;26.42;37.72
55470;BME280;41334;47.872;16.384;2022-08-25T16:40:40;98837.31;;;26.34;37.89
55470;BME280;41334;47.872;16.384;2022-08-25T16:43:43;98832.72;;;26.30;38.78
55470;BME280;41334;47.872;16.384;2022-08-25T16:46:46;98829.38;;;26.19;38.17
55470;BME280;41334;47.872;16.384;2022-08-25T16:49:47;98830.59;;;26.13;38.81
55470;BME280;41334;47.872;16.384;2022-08-25T16:52:49;98838.00;;;25.99;38.54
55470;BME280;41334;47.872;16.384;2022-08-25T16:56:10;98836.13;;;25.80;39.12
55470;BME280;41334;47.872;16.384;2022-08-25T16:59:12;98834.50;;;25.66;39.95
55470;BME280;41334;47.872;16.384;2022-08-25T17:02:14;98832.59;;;25.47;40.98
55470;BME280;41334;47.872;16.384;2022-08-25T17:05:19;98844.97;;;25.31;40.90
55470;BME280;41334;47.872;16.384;2022-08-25T17:08:21;98841.34;;;25.17;41.20
55470;BME280;41334;47.872;16.384;2022-08-25T17:11:33;98844.09;;;24.98;41.33
55470;BME280;41334;47.872;16.384;2022-08-25T17:14:36;98840.22;;;24.80;40.74
55470;BME280;41334;47.872;16.384;2022-08-25T17:17:38;98833.69;;;24.57;41.61
55470;BME280;41334;47.872;16.384;2022-08-25T17:20:41;98847.38;;;24.38;42.36
55470;BME280;41334;47.872;16.384;2022-08-25T17:23:45;98848.06;;;24.25;42.84
55470;BME280;41334;47.872;16.384;2022-08-25T17:26:46;98842.50;;;24.06;43.49
55470;BME280;41334;47.872;16.384;2022-08-25T17:29:51;98846.53;;;23.90;44.34
55470;BME280;41334;47.872;16.384;2022-08-25T17:32:53;98845.88;;;23.74;44.87
55470;BME280;41334;47.872;16.384;2022-08-25T17:35:56;98854.50;;;23.57;45.02
55470;BME280;41334;47.872;16.384;2022-08-25T17:38:58;98854.63;;;23.42;45.54
55470;BME280;41334;47.872;16.384;2022-08-25T17:42:00;98850.66;;;23.24;45.59
55470;BME280;41334;47.872;16.384;2022-08-25T17:45:02;98847.50;;;23.07;45.97
55470;BME280;41334;47.872;16.384;2022-08-25T17:48:06;98842.13;;;22.91;46.52
55470;BME280;41334;47.872;16.384;2022-08-25T17:51:09;98847.44;;;22.78;47.49
55470;BME280;41334;47.872;16.384;2022-08-25T17:54:12;98846.69;;;22.62;48.35